Duque de Caxias, Brazil
Current Conditions -  °F | °C
As of 5:00 PM on Friday 28 Nov 2014 (Local Time) from SBGL Reporting Station
Broken Clouds Broken Clouds  
Wind Chill: 23°   Ceiling: 2000
Heat Index: 23°   Visibility: 6mi
Dew Point: 20°   Wind: 6mph
Humidity: 83%   Direction: 10°N
Pressure: 29.94"   Gusts: NA
Location:  22.77°S, 43.31°W
Report Text: SBGL 281900Z 01005KT 9000 BKN020 BKN050 23/20 Q1014
Loading
Personal Weather Stations






























Interactive Weather Map New forecast layout! Learn more

10-Day Weather Forecast

Advertisements
Track Severe Weather on mobile